sensor_id;sensor_type;location;lat;lon;timestamp;pressure;altitude;pressure_sealevel;temperature;humidity
12763;BME280;6445;52.490;13.378;2022-11-15T00:01:19;115814.03;;;-146.10;100.00
12763;BME280;6445;52.490;13.378;2022-11-15T00:03:45;115553.88;;;-146.10;100.00
12763;BME280;6445;52.490;13.378;2022-11-15T00:06:11;115553.88;;;-146.10;100.00
12763;BME280;6445;52.490;13.378;2022-11-15T00:08:36;115814.03;;;-146.10;100.00
12763;BME280;6445;52.490;13.378;2022-11-15T00:11:02;115814.03;;;-146.10;100.00
12763;BME280;6445;52.490;13.378;2022-11-15T00:13:28;115814.03;;;-146.10;100.00
12763;BME280;6445;52.490;13.378;2022-11-15T00:15:57;115553.88;;;-146.10;100.00
12763;BME280;6445;52.490;13.378;2022-11-15T00:18:23;115553.88;;;-146.10;100.00
12763;BME280;6445;52.490;13.378;2022-11-15T00:20:48;115553.88;;;-146.10;100.00
12763;BME280;6445;52.490;13.378;2022-11-15T00:23:13;115814.03;;;-146.10;100.00
12763;BME280;6445;52.490;13.378;2022-11-15T00:25:38;115553.88;;;-146.10;100.00
12763;BME280;6445;52.490;13.378;2022-11-15T00:28:04;115553.88;;;-146.10;100.00
12763;BME280;6445;52.490;13.378;2022-11-15T00:30:29;115553.88;;;-146.10;100.00
12763;BME280;6445;52.490;13.378;2022-11-15T00:32:54;115553.88;;;-146.10;100.00
12763;BME280;6445;52.490;13.378;2022-11-15T00:35:20;115553.88;;;-146.10;100.00
12763;BME280;6445;52.490;13.378;2022-11-15T00:37:46;115814.03;;;-146.10;100.00
12763;BME280;6445;52.490;13.378;2022-11-15T00:40:13;115814.03;;;-146.10;100.00
12763;BME280;6445;52.490;13.378;2022-11-15T00:42:38;116074.19;;;-146.10;100.00
12763;BME280;6445;52.490;13.378;2022-11-15T00:45:04;116074.19;;;-146.10;100.00
12763;BME280;6445;52.490;13.378;2022-11-15T00:47:30;116074.19;;;-146.10;100.00
12763;BME280;6445;52.490;13.378;2022-11-15T00:49:55;116074.19;;;-146.10;100.00
12763;BME280;6445;52.490;13.378;2022-11-15T00:52:20;116074.19;;;-146.10;100.00
12763;BME280;6445;52.490;13.378;2022-11-15T00:54:45;116334.38;;;-146.10;100.00
12763;BME280;6445;52.490;13.378;2022-11-15T00:57:10;116334.38;;;-146.10;100.00
12763;BME280;6445;52.490;13.378;2022-11-15T00:59:36;116074.19;;;-146.10;100.00
12763;BME280;6445;52.490;13.378;2022-11-15T01:02:01;116334.38;;;-146.10;100.00
12763;BME280;6445;52.490;13.378;2022-11-15T01:04:26;116334.38;;;-146.10;100.00
12763;BME280;6445;52.490;13.378;2022-11-15T01:06:52;116334.38;;;-146.10;100.00
12763;BME280;6445;52.490;13.378;2022-11-15T01:09:17;116074.19;;;-146.10;100.00
12763;BME280;6445;52.490;13.378;2022-11-15T01:11:43;116074.19;;;-146.10;100.00
12763;BME280;6445;52.490;13.378;2022-11-15T01:14:08;116334.38;;;-146.10;100.00
12763;BME280;6445;52.490;13.378;2022-11-15T01:16:33;116334.38;;;-146.10;100.00
12763;BME280;6445;52.490;13.378;2022-11-15T01:18:59;116334.38;;;-146.10;100.00
12763;BME280;6445;52.490;13.378;2022-11-15T01:21:25;116334.38;;;-146.10;100.00
12763;BME280;6445;52.490;13.378;2022-11-15T01:23:54;116334.38;;;-146.10;100.00
12763;BME280;6445;52.490;13.378;2022-11-15T01:26:20;116334.38;;;-146.10;100.00
12763;BME280;6445;52.490;13.378;2022-11-15T01:28:46;116594.56;;;-146.10;100.00
12763;BME280;6445;52.490;13.378;2022-11-15T01:31:14;116594.56;;;-146.10;100.00
12763;BME280;6445;52.490;13.378;2022-11-15T01:33:40;116594.56;;;-146.10;100.00
12763;BME280;6445;52.490;13.378;2022-11-15T01:36:07;116854.78;;;-146.10;100.00
12763;BME280;6445;52.490;13.378;2022-11-15T01:38:33;116854.78;;;-146.10;100.00
12763;BME280;6445;52.490;13.378;2022-11-15T01:40:59;116854.78;;;-146.10;100.00
12763;BME280;6445;52.490;13.378;2022-11-15T01:43:34;116594.56;;;-146.10;100.00
12763;BME280;6445;52.490;13.378;2022-11-15T01:46:12;116854.78;;;-146.10;100.00
12763;BME280;6445;52.490;13.378;2022-11-15T01:48:42;116854.78;;;-146.10;100.00
12763;BME280;6445;52.490;13.378;2022-11-15T01:51:10;116854.78;;;-146.10;100.00
12763;BME280;6445;52.490;13.378;2022-11-15T01:53:38;117115.03;;;-146.10;100.00
12763;BME280;6445;52.490;13.378;2022-11-15T01:56:07;117115.03;;;-146.10;100.00
12763;BME280;6445;52.490;13.378;2022-11-15T01:58:34;117115.03;;;-146.10;100.00
12763;BME280;6445;52.490;13.378;2022-11-15T02:01:01;117115.03;;;-146.10;100.00
12763;BME280;6445;52.490;13.378;2022-11-15T02:03:34;117115.03;;;-146.10;100.00
12763;BME280;6445;52.490;13.378;2022-11-15T02:06:03;117115.03;;;-146.10;100.00
12763;BME280;6445;52.490;13.378;2022-11-15T02:08:29;117115.03;;;-146.10;100.00
12763;BME280;6445;52.490;13.378;2022-11-15T02:10:54;117375.28;;;-146.10;100.00
12763;BME280;6445;52.490;13.378;2022-11-15T02:13:20;117375.28;;;-146.10;100.00
12763;BME280;6445;52.490;13.378;2022-11-15T02:15:58;117375.28;;;-146.10;100.00
12763;BME280;6445;52.490;13.378;2022-11-15T02:18:34;117635.53;;;-146.10;100.00
12763;BME280;6445;52.490;13.378;2022-11-15T02:23:55;117375.28;;;-146.10;100.00
12763;BME280;6445;52.490;13.378;2022-11-15T02:29:28;117375.28;;;-146.10;100.00
12763;BME280;6445;52.490;13.378;2022-11-15T02:32:06;117375.28;;;-146.10;100.00
12763;BME280;6445;52.490;13.378;2022-11-15T02:37:39;117375.28;;;-146.10;100.00
12763;BME280;6445;52.490;13.378;2022-11-15T02:40:22;117375.28;;;-146.10;100.00
12763;BME280;6445;52.490;13.378;2022-11-15T02:42:53;117375.28;;;-146.10;100.00
12763;BME280;6445;52.490;13.378;2022-11-15T02:45:48;117375.28;;;-146.10;100.00
12763;BME280;6445;52.490;13.378;2022-11-15T02:48:15;117375.28;;;-146.10;100.00
12763;BME280;6445;52.490;13.378;2022-11-15T02:50:42;117375.28;;;-146.10;100.00
12763;BME280;6445;52.490;13.378;2022-11-15T02:53:09;117375.28;;;-146.10;100.00
12763;BME280;6445;52.490;13.378;2022-11-15T02:55:36;117375.28;;;-146.10;100.00
12763;BME280;6445;52.490;13.378;2022-11-15T02:58:19;117635.53;;;-146.10;100.00
12763;BME280;6445;52.490;13.378;2022-11-15T03:01:11;117635.53;;;-146.10;100.00
12763;BME280;6445;52.490;13.378;2022-11-15T03:04:02;117375.28;;;-146.10;100.00
12763;BME280;6445;52.490;13.378;2022-11-15T03:09:52;117375.28;;;-146.10;100.00
12763;BME280;6445;52.490;13.378;2022-11-15T03:12:37;117375.28;;;-146.10;100.00
12763;BME280;6445;52.490;13.378;2022-11-15T03:15:12;117375.28;;;-146.10;100.00
12763;BME280;6445;52.490;13.378;2022-11-15T03:17:50;117375.28;;;-146.10;100.00
12763;BME280;6445;52.490;13.378;2022-11-15T03:20:18;117375.28;;;-146.10;100.00
12763;BME280;6445;52.490;13.378;2022-11-15T03:22:46;117375.28;;;-146.10;100.00
12763;BME280;6445;52.490;13.378;2022-11-15T03:25:17;117375.28;;;-146.10;100.00
12763;BME280;6445;52.490;13.378;2022-11-15T03:27:47;117635.53;;;-146.10;100.00
12763;BME280;6445;52.490;13.378;2022-11-15T03:30:15;117635.53;;;-146.10;100.00
12763;BME280;6445;52.490;13.378;2022-11-15T03:32:49;117635.53;;;-146.10;100.00
12763;BME280;6445;52.490;13.378;2022-11-15T03:35:20;117375.28;;;-146.10;100.00
12763;BME280;6445;52.490;13.378;2022-11-15T03:38:15;117375.28;;;-146.10;100.00
12763;BME280;6445;52.490;13.378;2022-11-15T03:40:45;117375.28;;;-146.10;100.00
12763;BME280;6445;52.490;13.378;2022-11-15T03:43:32;117635.53;;;-146.10;100.00
12763;BME280;6445;52.490;13.378;2022-11-15T03:46:11;117375.28;;;-146.10;100.00
12763;BME280;6445;52.490;13.378;2022-11-15T03:48:42;117375.28;;;-146.10;100.00
12763;BME280;6445;52.490;13.378;2022-11-15T03:51:09;117375.28;;;-146.10;100.00
12763;BME280;6445;52.490;13.378;2022-11-15T03:53:34;117375.28;;;-146.10;100.00
12763;BME280;6445;52.490;13.378;2022-11-15T03:56:00;117115.03;;;-146.10;100.00
12763;BME280;6445;52.490;13.378;2022-11-15T03:58:25;117375.28;;;-146.10;100.00
12763;BME280;6445;52.490;13.378;2022-11-15T04:00:50;117375.28;;;-146.10;100.00
12763;BME280;6445;52.490;13.378;2022-11-15T04:03:16;117375.28;;;-146.10;100.00
12763;BME280;6445;52.490;13.378;2022-11-15T04:05:41;117115.03;;;-146.10;100.00
12763;BME280;6445;52.490;13.378;2022-11-15T04:08:06;117375.28;;;-146.10;100.00
12763;BME280;6445;52.490;13.378;2022-11-15T04:10:31;117375.28;;;-146.10;100.00
12763;BME280;6445;52.490;13.378;2022-11-15T04:12:56;117375.28;;;-146.10;100.00
12763;BME280;6445;52.490;13.378;2022-11-15T04:15:23;117635.53;;;-146.10;100.00
12763;BME280;6445;52.490;13.378;2022-11-15T04:17:51;117635.53;;;-146.10;100.00
12763;BME280;6445;52.490;13.378;2022-11-15T04:20:20;117635.53;;;-146.10;100.00
12763;BME280;6445;52.490;13.378;2022-11-15T04:23:07;117635.53;;;-146.10;100.00
12763;BME280;6445;52.490;13.378;2022-11-15T04:25:54;117635.53;;;-146.10;100.00
12763;BME280;6445;52.490;13.378;2022-11-15T04:28:19;117635.53;;;-146.10;100.00
12763;BME280;6445;52.490;13.378;2022-11-15T04:30:45;117375.28;;;-146.10;100.00
12763;BME280;6445;52.490;13.378;2022-11-15T04:33:11;117375.28;;;-146.10;100.00
12763;BME280;6445;52.490;13.378;2022-11-15T04:35:36;117375.28;;;-146.10;100.00
12763;BME280;6445;52.490;13.378;2022-11-15T04:38:03;117375.28;;;-146.10;100.00
12763;BME280;6445;52.490;13.378;2022-11-15T04:40:29;117375.28;;;-146.10;100.00
12763;BME280;6445;52.490;13.378;2022-11-15T04:42:54;117375.28;;;-146.10;100.00
12763;BME280;6445;52.490;13.378;2022-11-15T04:45:19;117375.28;;;-146.10;100.00
12763;BME280;6445;52.490;13.378;2022-11-15T04:47:45;117375.28;;;-146.10;100.00
12763;BME280;6445;52.490;13.378;2022-11-15T04:50:14;117375.28;;;-146.10;100.00
12763;BME280;6445;52.490;13.378;2022-11-15T04:52:41;117375.28;;;-146.10;100.00
12763;BME280;6445;52.490;13.378;2022-11-15T04:55:10;117375.28;;;-146.10;100.00
12763;BME280;6445;52.490;13.378;2022-11-15T04:57:36;117375.28;;;-146.10;100.00
12763;BME280;6445;52.490;13.378;2022-11-15T05:00:07;117635.53;;;-146.10;100.00
12763;BME280;6445;52.490;13.378;2022-11-15T05:02:32;117375.28;;;-146.10;100.00
12763;BME280;6445;52.490;13.378;2022-11-15T05:05:30;117635.53;;;-146.10;100.00
12763;BME280;6445;52.490;13.378;2022-11-15T05:07:55;117635.53;;;-146.10;100.00
12763;BME280;6445;52.490;13.378;2022-11-15T05:10:20;117895.81;;;-146.10;100.00
12763;BME280;6445;52.490;13.378;2022-11-15T05:12:46;117895.81;;;-146.10;100.00
12763;BME280;6445;52.490;13.378;2022-11-15T05:15:11;117895.81;;;-146.10;100.00
12763;BME280;6445;52.490;13.378;2022-11-15T05:17:37;117895.81;;;-146.10;100.00
12763;BME280;6445;52.490;13.378;2022-11-15T05:20:02;117635.53;;;-146.10;100.00
12763;BME280;6445;52.490;13.378;2022-11-15T05:22:27;117635.53;;;-146.10;100.00
12763;BME280;6445;52.490;13.378;2022-11-15T05:24:53;117635.53;;;-146.10;100.00
12763;BME280;6445;52.490;13.378;2022-11-15T05:27:18;117635.53;;;-146.10;100.00
12763;BME280;6445;52.490;13.378;2022-11-15T05:29:43;117635.53;;;-146.10;100.00
12763;BME280;6445;52.490;13.378;2022-11-15T05:32:09;117635.53;;;-146.10;100.00
12763;BME280;6445;52.490;13.378;2022-11-15T05:34:36;117635.53;;;-146.10;100.00
12763;BME280;6445;52.490;13.378;2022-11-15T05:37:03;117635.53;;;-146.10;100.00
12763;BME280;6445;52.490;13.378;2022-11-15T05:39:28;117635.53;;;-146.10;100.00
12763;BME280;6445;52.490;13.378;2022-11-15T05:42:10;117635.53;;;-146.10;100.00
12763;BME280;6445;52.490;13.378;2022-11-15T05:44:37;117635.53;;;-146.10;100.00
12763;BME280;6445;52.490;13.378;2022-11-15T05:47:05;117635.53;;;-146.10;100.00
12763;BME280;6445;52.490;13.378;2022-11-15T05:49:34;117635.53;;;-146.10;100.00
12763;BME280;6445;52.490;13.378;2022-11-15T05:52:03;117895.81;;;-146.10;100.00
12763;BME280;6445;52.490;13.378;2022-11-15T05:54:31;117635.53;;;-146.10;100.00
12763;BME280;6445;52.490;13.378;2022-11-15T05:56:57;117895.81;;;-146.10;100.00
12763;BME280;6445;52.490;13.378;2022-11-15T05:59:22;117895.81;;;-146.10;100.00
12763;BME280;6445;52.490;13.378;2022-11-15T06:01:48;117895.81;;;-146.10;100.00
12763;BME280;6445;52.490;13.378;2022-11-15T06:04:13;117635.53;;;-146.10;100.00
12763;BME280;6445;52.490;13.378;2022-11-15T06:06:38;117635.53;;;-146.10;100.00
12763;BME280;6445;52.490;13.378;2022-11-15T06:09:04;117635.53;;;-146.10;100.00
12763;BME280;6445;52.490;13.378;2022-11-15T06:11:29;117895.81;;;-146.10;100.00
12763;BME280;6445;52.490;13.378;2022-11-15T06:13:54;117895.81;;;-146.10;100.00
12763;BME280;6445;52.490;13.378;2022-11-15T06:16:19;117895.81;;;-146.10;100.00
12763;BME280;6445;52.490;13.378;2022-11-15T06:18:45;117895.81;;;-146.10;100.00
12763;BME280;6445;52.490;13.378;2022-11-15T06:21:10;117895.81;;;-146.10;100.00
12763;BME280;6445;52.490;13.378;2022-11-15T06:23:35;117895.81;;;-146.10;100.00
12763;BME280;6445;52.490;13.378;2022-11-15T06:26:02;117895.81;;;-146.10;100.00
12763;BME280;6445;52.490;13.378;2022-11-15T06:28:28;118156.13;;;-146.10;100.00
12763;BME280;6445;52.490;13.378;2022-11-15T06:30:54;117895.81;;;-146.10;100.00
12763;BME280;6445;52.490;13.378;2022-11-15T06:33:19;118156.13;;;-146.10;100.00
12763;BME280;6445;52.490;13.378;2022-11-15T06:35:44;117895.81;;;-146.10;100.00
12763;BME280;6445;52.490;13.378;2022-11-15T06:38:10;117895.81;;;-146.10;100.00
12763;BME280;6445;52.490;13.378;2022-11-15T06:40:37;117895.81;;;-146.10;100.00
12763;BME280;6445;52.490;13.378;2022-11-15T06:43:03;117895.81;;;-146.10;100.00
12763;BME280;6445;52.490;13.378;2022-11-15T06:45:29;117895.81;;;-146.10;100.00
12763;BME280;6445;52.490;13.378;2022-11-15T06:47:54;117635.53;;;-146.10;100.00
12763;BME280;6445;52.490;13.378;2022-11-15T06:50:20;117635.53;;;-146.10;100.00
12763;BME280;6445;52.490;13.378;2022-11-15T06:52:45;117635.53;;;-146.10;100.00
12763;BME280;6445;52.490;13.378;2022-11-15T06:55:10;117635.53;;;-146.10;100.00
12763;BME280;6445;52.490;13.378;2022-11-15T06:57:36;117635.53;;;-146.10;100.00
12763;BME280;6445;52.490;13.378;2022-11-15T07:00:04;117635.53;;;-146.10;100.00
12763;BME280;6445;52.490;13.378;2022-11-15T07:02:29;117635.53;;;-146.10;100.00
12763;BME280;6445;52.490;13.378;2022-11-15T07:04:55;117635.53;;;-146.10;100.00
12763;BME280;6445;52.490;13.378;2022-11-15T07:07:20;117635.53;;;-146.10;100.00
12763;BME280;6445;52.490;13.378;2022-11-15T07:09:45;117635.53;;;-146.10;100.00
12763;BME280;6445;52.490;13.378;2022-11-15T07:12:10;117375.28;;;-146.10;100.00
12763;BME280;6445;52.490;13.378;2022-11-15T07:14:36;117375.28;;;-146.10;100.00
12763;BME280;6445;52.490;13.378;2022-11-15T07:17:04;117635.53;;;-146.10;100.00
12763;BME280;6445;52.490;13.378;2022-11-15T07:19:29;117375.28;;;-146.10;100.00
12763;BME280;6445;52.490;13.378;2022-11-15T07:21:55;117375.28;;;-146.10;100.00
12763;BME280;6445;52.490;13.378;2022-11-15T07:24:20;117375.28;;;-146.10;100.00
12763;BME280;6445;52.490;13.378;2022-11-15T07:26:45;117375.28;;;-146.10;100.00
12763;BME280;6445;52.490;13.378;2022-11-15T07:29:10;117375.28;;;-146.10;100.00
12763;BME280;6445;52.490;13.378;2022-11-15T07:31:36;116854.78;;;-146.10;100.00
12763;BME280;6445;52.490;13.378;2022-11-15T07:34:01;116854.78;;;-146.10;100.00
12763;BME280;6445;52.490;13.378;2022-11-15T07:36:27;116594.56;;;-146.10;100.00
12763;BME280;6445;52.490;13.378;2022-11-15T07:38:52;116594.56;;;-146.10;100.00
12763;BME280;6445;52.490;13.378;2022-11-15T07:41:17;116334.38;;;-146.10;100.00
12763;BME280;6445;52.490;13.378;2022-11-15T07:43:42;115814.03;;;-146.10;100.00
12763;BME280;6445;52.490;13.378;2022-11-15T07:46:08;115814.03;;;-146.10;99.94
12763;BME280;6445;52.490;13.378;2022-11-15T07:48:35;115293.72;;;-146.10;99.22
12763;BME280;6445;52.490;13.378;2022-11-15T07:51:00;114253.34;;;-146.10;98.66
12763;BME280;6445;52.490;13.378;2022-11-15T07:53:25;112433.34;;;-146.10;97.52
12763;BME280;6445;52.490;13.378;2022-11-15T07:55:51;111393.69;;;-146.10;96.38
12763;BME280;6445;52.490;13.378;2022-11-15T07:58:18;108795.75;;;-146.10;95.27
12763;BME280;6445;52.490;13.378;2022-11-15T08:00:43;103604.81;;;-146.10;92.68
12763;BME280;6445;52.490;13.378;2022-11-15T08:03:11;96089.72;;;-146.10;89.98
12763;BME280;6445;52.490;13.378;2022-11-15T08:05:37;71050.31;;;-146.10;85.15
12763;BME280;6445;52.490;13.378;2022-11-15T08:08:03;65560.47;;;-146.10;84.74
12763;BME280;6445;52.490;13.378;2022-11-15T08:10:29;70057.44;;;-146.10;85.56
12763;BME280;6445;52.490;13.378;2022-11-15T08:13:01;62241.72;;;-146.10;83.33
12763;BME280;6445;52.490;13.378;2022-11-15T08:15:28;56193.22;;;-146.10;80.16
12763;BME280;6445;52.490;13.378;2022-11-15T08:17:55;54583.44;;;-146.10;79.34
12763;BME280;6445;52.490;13.378;2022-11-15T08:20:20;55898.84;;;-146.10;81.06
12763;BME280;6445;52.490;13.378;2022-11-15T08:22:46;56187.22;;;-146.10;81.37
12763;BME280;6445;52.490;13.378;2022-11-15T08:25:11;56561.72;;;-146.10;81.05
12763;BME280;6445;52.490;13.378;2022-11-15T08:27:36;54379.28;;;-146.10;78.49
12763;BME280;6445;52.490;13.378;2022-11-15T08:30:02;54077.03;;;-146.10;77.76
12763;BME280;6445;52.490;13.378;2022-11-15T08:32:27;53236.47;;;-146.10;75.92
12763;BME280;6445;52.490;13.378;2022-11-15T08:34:52;52846.28;;;-146.10;72.65
12763;BME280;6445;52.490;13.378;2022-11-15T08:37:17;52506.13;;;-146.10;69.82
12763;BME280;6445;52.490;13.378;2022-11-15T08:39:43;52518.13;;;-146.10;72.13
12763;BME280;6445;52.490;13.378;2022-11-15T08:42:08;52740.22;;;-146.10;74.27
12763;BME280;6445;52.490;13.378;2022-11-15T08:44:33;53308.50;;;-146.10;77.42
12763;BME280;6445;52.490;13.378;2022-11-15T08:46:58;53298.50;;;-146.10;76.95
12763;BME280;6445;52.490;13.378;2022-11-15T08:49:24;53222.47;;;-146.10;76.66
12763;BME280;6445;52.490;13.378;2022-11-15T08:51:49;52978.34;;;-146.10;75.07
12763;BME280;6445;52.490;13.378;2022-11-15T08:54:14;52954.31;;;-146.10;74.99
12763;BME280;6445;52.490;13.378;2022-11-15T08:56:39;52938.31;;;-146.10;75.12
12763;BME280;6445;52.490;13.378;2022-11-15T08:59:05;52986.34;;;-146.10;75.84
12763;BME280;6445;52.490;13.378;2022-11-15T09:01:30;53062.38;;;-146.10;75.57
12763;BME280;6445;52.490;13.378;2022-11-15T09:03:55;53072.38;;;-146.10;75.76
12763;BME280;6445;52.490;13.378;2022-11-15T09:06:21;53116.41;;;-146.10;76.17
12763;BME280;6445;52.490;13.378;2022-11-15T09:08:46;52792.25;;;-146.10;74.20
12763;BME280;6445;52.490;13.378;2022-11-15T09:11:11;52938.31;;;-146.10;74.62
12763;BME280;6445;52.490;13.378;2022-11-15T09:13:37;52654.19;;;-146.10;72.49
12763;BME280;6445;52.490;13.378;2022-11-15T09:16:03;52532.13;;;-146.10;71.44
12763;BME280;6445;52.490;13.378;2022-11-15T09:18:28;52362.06;;;-146.10;65.01
12763;BME280;6445;52.490;13.378;2022-11-15T09:20:57;52232.03;;;-146.10;59.94
12763;BME280;6445;52.490;13.378;2022-11-15T09:23:24;52220.03;;;-146.10;56.02
12763;BME280;6445;52.490;13.378;2022-11-15T09:25:50;52206.03;;;-146.10;52.62
12763;BME280;6445;52.490;13.378;2022-11-15T09:28:15;52228.03;;;-146.10;48.64
12763;BME280;6445;52.490;13.378;2022-11-15T09:30:40;52166.00;;;-146.10;51.21
12763;BME280;6445;52.490;13.378;2022-11-15T09:33:07;52136.00;;;-146.10;51.42
12763;BME280;6445;52.490;13.378;2022-11-15T09:35:33;52206.03;;;-146.10;48.89
12763;BME280;6445;52.490;13.378;2022-11-15T09:37:58;52208.03;;;-146.10;46.90
12763;BME280;6445;52.490;13.378;2022-11-15T09:40:23;52224.03;;;-146.10;45.33
12763;BME280;6445;52.490;13.378;2022-11-15T09:46:00;52258.03;;;-146.10;43.00
12763;BME280;6445;52.490;13.378;2022-11-15T09:51:26;52252.03;;;-146.10;40.20
12763;BME280;6445;52.490;13.378;2022-11-15T09:54:00;52280.03;;;-146.10;40.23
12763;BME280;6445;52.490;13.378;2022-11-15T09:56:30;52272.03;;;-146.10;39.18
12763;BME280;6445;52.490;13.378;2022-11-15T10:04:41;52308.06;;;-146.10;39.01
12763;BME280;6445;52.490;13.378;2022-11-15T10:07:19;52278.03;;;-146.10;39.27
12763;BME280;6445;52.490;13.378;2022-11-15T10:09:51;52256.03;;;-146.10;40.10
12763;BME280;6445;52.490;13.378;2022-11-15T10:12:18;52314.06;;;-146.10;38.33
12763;BME280;6445;52.490;13.378;2022-11-15T10:14:45;52350.06;;;-146.10;36.85
12763;BME280;6445;52.490;13.378;2022-11-15T10:17:26;52332.06;;;-146.10;36.75
12763;BME280;6445;52.490;13.378;2022-11-15T10:22:37;52216.03;;;-146.10;40.86
12763;BME280;6445;52.490;13.378;2022-11-15T10:25:14;52252.03;;;-146.10;40.38
12763;BME280;6445;52.490;13.378;2022-11-15T10:27:42;52264.03;;;-146.10;39.24
12763;BME280;6445;52.490;13.378;2022-11-15T10:30:17;52260.03;;;-146.10;40.24
12763;BME280;6445;52.490;13.378;2022-11-15T10:32:44;52198.03;;;-146.10;41.25
12763;BME280;6445;52.490;13.378;2022-11-15T10:35:25;52210.03;;;-146.10;41.97
12763;BME280;6445;52.490;13.378;2022-11-15T10:37:51;52214.03;;;-146.10;41.77
12763;BME280;6445;52.490;13.378;2022-11-15T10:40:23;52176.00;;;-146.10;43.66
12763;BME280;6445;52.490;13.378;2022-11-15T10:43:04;52184.03;;;-146.10;44.24
12763;BME280;6445;52.490;13.378;2022-11-15T10:45:32;52166.00;;;-146.10;45.46
12763;BME280;6445;52.490;13.378;2022-11-15T10:50:39;52186.03;;;-146.10;44.60
12763;BME280;6445;52.490;13.378;2022-11-15T10:53:16;52168.00;;;-146.10;45.25
12763;BME280;6445;52.490;13.378;2022-11-15T10:55:46;52204.03;;;-146.10;44.12
12763;BME280;6445;52.490;13.378;2022-11-15T10:58:32;52194.03;;;-146.10;43.24
12763;BME280;6445;52.490;13.378;2022-11-15T11:01:15;52254.03;;;-146.10;41.08
12763;BME280;6445;52.490;13.378;2022-11-15T11:03:42;52246.03;;;-146.10;41.45
12763;BME280;6445;52.490;13.378;2022-11-15T11:06:16;52186.03;;;-146.10;41.71
12763;BME280;6445;52.490;13.378;2022-11-15T11:08:56;52282.03;;;-146.10;41.35
12763;BME280;6445;52.490;13.378;2022-11-15T11:11:22;52238.03;;;-146.10;41.84
12763;BME280;6445;52.490;13.378;2022-11-15T11:13:48;52202.03;;;-146.10;43.45
12763;BME280;6445;52.490;13.378;2022-11-15T11:21:26;52224.03;;;-146.10;42.33
12763;BME280;6445;52.490;13.378;2022-11-15T11:24:10;52246.03;;;-146.10;42.64
12763;BME280;6445;52.490;13.378;2022-11-15T11:27:36;52248.03;;;-146.10;41.24
12763;BME280;6445;52.490;13.378;2022-11-15T11:30:06;52268.03;;;-146.10;39.70
12763;BME280;6445;52.490;13.378;2022-11-15T11:37:52;52264.03;;;-146.10;39.93
12763;BME280;6445;52.490;13.378;2022-11-15T11:40:36;52358.06;;;-146.10;37.42
12763;BME280;6445;52.490;13.378;2022-11-15T11:46:27;52374.06;;;-146.10;36.97
12763;BME280;6445;52.490;13.378;2022-11-15T11:49:26;52256.03;;;-146.10;40.08
12763;BME280;6445;52.490;13.378;2022-11-15T11:52:10;52260.03;;;-146.10;40.02
12763;BME280;6445;52.490;13.378;2022-11-15T11:54:49;52284.03;;;-146.10;38.92
12763;BME280;6445;52.490;13.378;2022-11-15T11:57:25;52286.03;;;-146.10;39.82
12763;BME280;6445;52.490;13.378;2022-11-15T12:00:04;52276.03;;;-146.10;39.83
12763;BME280;6445;52.490;13.378;2022-11-15T12:02:39;52250.03;;;-146.10;40.29
12763;BME280;6445;52.490;13.378;2022-11-15T12:05:16;52226.03;;;-146.10;41.44
12763;BME280;6445;52.490;13.378;2022-11-15T12:07:46;52264.03;;;-146.10;39.40
12763;BME280;6445;52.490;13.378;2022-11-15T12:10:24;52236.03;;;-146.10;41.01
12763;BME280;6445;52.490;13.378;2022-11-15T12:13:16;52224.03;;;-146.10;42.64
12763;BME280;6445;52.490;13.378;2022-11-15T12:15:47;52168.00;;;-146.10;44.71
12763;BME280;6445;52.490;13.378;2022-11-15T12:18:16;52146.00;;;-146.10;46.20
12763;BME280;6445;52.490;13.378;2022-11-15T12:20:55;52154.00;;;-146.10;48.02
12763;BME280;6445;52.490;13.378;2022-11-15T12:23:31;52166.00;;;-146.10;49.11
12763;BME280;6445;52.490;13.378;2022-11-15T12:26:05;52144.00;;;-146.10;48.71
12763;BME280;6445;52.490;13.378;2022-11-15T12:28:40;52138.00;;;-146.10;48.52
12763;BME280;6445;52.490;13.378;2022-11-15T12:31:15;52144.00;;;-146.10;49.95
12763;BME280;6445;52.490;13.378;2022-11-15T12:33:47;52160.00;;;-146.10;48.61
12763;BME280;6445;52.490;13.378;2022-11-15T12:41:22;52238.03;;;-146.10;43.03
12763;BME280;6445;52.490;13.378;2022-11-15T12:43:49;52246.03;;;-146.10;42.24
12763;BME280;6445;52.490;13.378;2022-11-15T12:49:01;52224.03;;;-146.10;43.76
12763;BME280;6445;52.490;13.378;2022-11-15T12:59:48;52140.00;;;-146.10;48.50
12763;BME280;6445;52.490;13.378;2022-11-15T13:02:19;52194.03;;;-146.10;45.79
12763;BME280;6445;52.490;13.378;2022-11-15T13:04:46;52238.03;;;-146.10;42.62
12763;BME280;6445;52.490;13.378;2022-11-15T13:10:01;52258.03;;;-146.10;41.07
12763;BME280;6445;52.490;13.378;2022-11-15T13:14:56;52232.03;;;-146.10;43.34
12763;BME280;6445;52.490;13.378;2022-11-15T13:17:37;52218.03;;;-146.10;45.20
12763;BME280;6445;52.490;13.378;2022-11-15T13:23:07;52240.03;;;-146.10;43.59
12763;BME280;6445;52.490;13.378;2022-11-15T13:30:41;52216.03;;;-146.10;43.65
12763;BME280;6445;52.490;13.378;2022-11-15T13:33:16;52192.03;;;-146.10;44.60
12763;BME280;6445;52.490;13.378;2022-11-15T13:35:45;52178.00;;;-146.10;45.56
12763;BME280;6445;52.490;13.378;2022-11-15T13:40:49;52140.00;;;-146.10;49.53
12763;BME280;6445;52.490;13.378;2022-11-15T13:43:34;52124.00;;;-146.10;51.70
12763;BME280;6445;52.490;13.378;2022-11-15T13:46:05;52100.00;;;-146.10;51.53
12763;BME280;6445;52.490;13.378;2022-11-15T13:48:30;52164.00;;;-146.10;49.99
12763;BME280;6445;52.490;13.378;2022-11-15T13:50:56;52130.00;;;-146.10;50.58
12763;BME280;6445;52.490;13.378;2022-11-15T13:53:22;52104.00;;;-146.10;53.61